Time;durP1;ratioP1;P1;durP2;ratioP2;P2;SDS_P1;SDS_P2;PMS_P1;PMS_P2;Temp;Humidity;BMP_temperature;BMP_pressure;BME280_temperature;BME280_humidity;BME280_pressure;Samples;Min_cycle;Max_cycle;Signal;HPM_P1;HPM_P2
2021/03/20 00:00:27;;;;;;;2.00;1.60;;;23.60;42.20;;;;;;5071809;28;20052;-38
2021/03/20 00:02:54;;;;;;;;;;;23.60;42.70;;;;;;5073559;28;20131;-38
2021/03/20 00:05:21;;;;;;;2.03;1.60;;;23.60;42.20;;;;;;5071448;28;20288;-38
2021/03/20 00:07:51;;;;;;;2.75;1.85;;;23.60;42.20;;;;;;5071556;28;20106;-38
2021/03/20 00:10:20;;;;;;;3.00;1.88;;;23.50;42.10;;;;;;5087374;28;20040;-38
2021/03/20 00:12:48;;;;;;;2.05;1.65;;;23.60;42.20;;;;;;5071039;28;20053;-38
2021/03/20 00:15:17;;;;;;;2.00;1.60;;;23.50;42.10;;;;;;5070667;28;20048;-38
2021/03/20 00:17:44;;;;;;;2.30;1.80;;;23.50;42.10;;;;;;5071697;28;20052;-38
2021/03/20 00:20:16;;;;;;;1.77;1.50;;;23.50;42.10;;;;;;5071331;28;20519;-38
2021/03/20 00:22:42;;;;;;;2.50;1.60;;;23.50;42.20;;;;;;5070492;28;20049;-38
2021/03/20 00:25:10;;;;;;;2.03;1.52;;;23.50;42.10;;;;;;5070993;28;20052;-38
2021/03/20 00:27:36;;;;;;;1.98;1.50;;;23.50;42.10;;;;;;5069615;28;20417;-38
2021/03/20 00:30:05;;;;;;;3.00;1.55;;;23.50;42.10;;;;;;5070137;28;20492;-38
2021/03/20 00:32:32;;;;;;;1.83;1.50;;;23.50;42.10;;;;;;5070330;28;20048;-37
2021/03/20 00:34:59;;;;;;;1.92;1.70;;;23.50;42.10;;;;;;5072750;28;20040;-38
2021/03/20 00:37:26;;;;;;;2.70;1.80;;;23.50;42.10;;;;;;5072589;28;20044;-38
2021/03/20 00:39:52;;;;;;;2.13;1.50;;;23.50;42.10;;;;;;5070645;28;20048;-38
2021/03/20 00:42:19;;;;;;;2.25;1.60;;;23.50;42.10;;;;;;5071405;28;20060;-38
2021/03/20 00:44:46;;;;;;;1.85;1.35;;;23.50;42.10;;;;;;5071361;28;20048;-38
2021/03/20 00:47:12;;;;;;;2.15;1.67;;;23.50;42.10;;;;;;5071682;28;20053;-38
2021/03/20 00:49:39;;;;;;;2.17;1.60;;;23.50;42.10;;;;;;5069712;28;20045;-38
2021/03/20 00:52:06;;;;;;;2.25;1.73;;;23.50;42.10;;;;;;5071710;28;20055;-38
2021/03/20 00:54:33;;;;;;;2.05;1.60;;;23.50;42.10;;;;;;5069879;28;20037;-37
2021/03/20 00:57:00;;;;;;;2.17;1.48;;;23.50;42.10;;;;;;5072332;28;20041;-38
2021/03/20 00:59:26;;;;;;;2.53;1.48;;;23.50;42.10;;;;;;5069719;28;20559;-38
2021/03/20 01:01:53;;;;;;;2.53;1.50;;;23.50;42.10;;;;;;5071369;28;20412;-38
2021/03/20 01:04:20;;;;;;;2.38;1.70;;;23.50;42.10;;;;;;5071494;28;20044;-38
2021/03/20 01:06:47;;;;;;;2.33;1.50;;;23.50;42.10;;;;;;5071469;28;20048;-38
2021/03/20 01:09:24;;;;;;;2.35;1.40;;;23.50;42.10;;;;;;5071249;28;20055;-38
2021/03/20 01:11:51;;;;;;;1.77;1.42;;;23.50;42.10;;;;;;5071568;28;20052;-38
2021/03/20 01:14:17;;;;;;;2.20;1.50;;;23.50;42.10;;;;;;5068882;28;20056;-38
2021/03/20 01:16:44;;;;;;;2.17;1.50;;;23.50;42.20;;;;;;5069944;28;20451;-38
2021/03/20 01:19:11;;;;;;;1.92;1.50;;;23.50;42.70;;;;;;5070621;28;20106;-37
2021/03/20 01:21:37;;;;;;;2.35;1.75;;;23.50;42.10;;;;;;5072399;28;20048;-38
2021/03/20 01:24:04;;;;;;;1.95;1.50;;;23.50;42.10;;;;;;5069789;28;20114;-38
2021/03/20 01:26:31;;;;;;;2.15;1.67;;;23.50;42.10;;;;;;5069535;28;20056;-37
2021/03/20 01:28:58;;;;;;;1.90;1.40;;;23.50;42.10;;;;;;5070898;28;20049;-37
2021/03/20 01:31:24;;;;;;;2.40;1.83;;;23.50;42.10;;;;;;5070037;28;20415;-38
2021/03/20 01:33:51;;;;;;;1.70;1.20;;;23.50;42.20;;;;;;5070207;28;20041;-38
2021/03/20 01:36:18;;;;;;;2.58;1.70;;;23.50;42.10;;;;;;5069747;28;20061;-37
2021/03/20 01:38:45;;;;;;;1.90;1.63;;;23.50;42.10;;;;;;5073912;28;20124;-38
2021/03/20 01:41:17;;;;;;;2.15;1.77;;;23.50;42.10;;;;;;5073078;28;20048;-38
2021/03/20 01:43:45;;;;;;;1.95;1.55;;;23.50;42.10;;;;;;5073346;28;20470;-38
2021/03/20 01:46:34;;;;;;;2.55;1.83;;;23.50;42.10;;;;;;5073179;28;20053;-37
2021/03/20 01:49:11;;;;;;;2.35;1.58;;;23.40;42.00;;;;;;5074348;28;20048;-38
2021/03/20 01:51:38;;;;;;;2.00;1.40;;;23.50;42.10;;;;;;5073988;28;20047;-38
2021/03/20 01:54:06;;;;;;;2.55;1.63;;;23.50;42.10;;;;;;5073915;28;20052;-38
2021/03/20 01:56:42;;;;;;;2.20;1.52;;;23.40;42.00;;;;;;5073155;28;20063;-37
2021/03/20 01:59:12;;;;;;;2.22;1.80;;;23.50;42.10;;;;;;5072365;28;20045;-38
2021/03/20 02:01:39;;;;;;;1.98;1.50;;;23.40;42.10;;;;;;5073118;28;20071;-37
2021/03/20 02:04:07;;;;;;;2.22;1.33;;;23.40;42.10;;;;;;5073939;28;20044;-38
2021/03/20 02:06:35;;;;;;;2.00;1.50;;;23.50;42.20;;;;;;5073267;28;20106;-38
2021/03/20 02:09:11;;;;;;;1.88;1.48;;;23.40;42.10;;;;;;5073635;28;20094;-37
2021/03/20 02:12:01;;;;;;;1.83;1.42;;;23.40;42.00;;;;;;5073293;28;20059;-37
2021/03/20 02:14:44;;;;;;;2.08;1.58;;;23.40;42.10;;;;;;5073856;28;20491;-38
2021/03/20 02:17:23;;;;;;;2.53;1.88;;;23.40;42.00;;;;;;5074075;28;20045;-37
2021/03/20 02:20:00;;;;;;;2.15;1.33;;;23.40;42.10;;;;;;5073448;28;20075;-37
2021/03/20 02:22:45;;;;;;;1.75;1.50;;;23.40;42.10;;;;;;5073091;28;20113;-37
2021/03/20 02:25:23;;;;;;;1.85;1.48;;;23.40;42.10;;;;;;5073268;28;20056;-37
2021/03/20 02:27:58;;;;;;;1.52;1.35;;;23.40;42.10;;;;;;5072411;28;20056;-38
2021/03/20 02:30:52;;;;;;;1.55;1.30;;;23.40;42.10;;;;;;5070704;28;20074;-37
2021/03/20 02:33:47;;;;;;;1.52;1.25;;;23.40;42.10;;;;;;5073359;28;20515;-37
2021/03/20 02:36:35;;;;;;;1.55;1.10;;;23.40;42.10;;;;;;5073646;28;20048;-38
2021/03/20 02:39:22;;;;;;;2.58;1.70;;;23.40;42.10;;;;;;5073548;28;20475;-38
2021/03/20 02:42:06;;;;;;;1.80;1.45;;;23.40;42.10;;;;;;5055962;28;20059;-39
2021/03/20 02:44:58;;;;;;;1.80;1.38;;;23.40;42.10;;;;;;5054990;28;20045;-38
2021/03/20 02:47:37;;;;;;;1.70;1.38;;;23.40;42.10;;;;;;5056077;28;20057;-38
2021/03/20 02:50:18;;;;;;;2.33;1.58;;;23.40;42.10;;;;;;5055199;28;20044;-38
2021/03/20 02:52:58;;;;;;;2.28;1.30;;;23.30;42.00;;;;;;5072910;28;20048;-38
2021/03/20 02:55:30;;;;;;;1.83;1.40;;;23.40;42.10;;;;;;5056685;28;20089;-38
2021/03/20 02:58:03;;;;;;;2.33;1.65;;;23.30;42.00;;;;;;5073050;28;20052;-38
2021/03/20 03:00:34;;;;;;;2.03;1.60;;;23.30;42.00;;;;;;5072863;28;20052;-39
2021/03/20 03:03:03;;;;;;;1.92;1.50;;;23.30;42.00;;;;;;5072275;28;20049;-40
2021/03/20 03:05:40;;;;;;;1.48;1.20;;;23.40;42.10;;;;;;5074241;28;20074;-38
2021/03/20 03:08:34;;;;;;;1.67;1.20;;;23.40;42.10;;;;;;5071464;28;20057;-38
2021/03/20 03:11:12;;;;;;;1.73;1.40;;;23.30;42.00;;;;;;5071763;28;20117;-38
2021/03/20 03:13:44;;;;;;;2.22;1.40;;;23.40;42.10;;;;;;5070461;28;20510;-38
2021/03/20 03:16:20;;;;;;;2.47;1.75;;;23.30;42.00;;;;;;5071792;28;20040;-38
2021/03/20 03:18:58;;;;;;;1.67;1.27;;;23.30;42.00;;;;;;5072375;28;20049;-39
2021/03/20 03:21:29;;;;;;;1.92;1.40;;;23.40;42.10;;;;;;5071559;28;20449;-38
2021/03/20 03:23:56;;;;;;;1.63;1.20;;;23.40;42.10;;;;;;5072501;28;20048;-38
2021/03/20 03:26:33;;;;;;;1.90;1.30;;;23.30;42.00;;;;;;5072093;28;20051;-38
2021/03/20 03:29:08;;;;;;;1.45;1.13;;;23.30;42.60;;;;;;5071707;28;20110;-38
2021/03/20 03:31:56;;;;;;;2.17;1.48;;;23.30;42.00;;;;;;5072098;28;20052;-38
2021/03/20 03:34:39;;;;;;;1.85;1.50;;;23.30;42.00;;;;;;5071369;28;20070;-38
2021/03/20 03:37:12;;;;;;;1.80;1.30;;;23.40;42.10;;;;;;5071263;28;20121;-38
2021/03/20 03:40:01;;;;;;;1.40;1.20;;;23.30;42.00;;;;;;5070888;28;20067;-39
2021/03/20 03:42:32;;;;;;;2.23;1.50;;;23.30;42.00;;;;;;5070867;28;20512;-38
2021/03/20 03:44:59;;;;;;;1.70;1.30;;;23.30;42.00;;;;;;5071886;28;20052;-38
2021/03/20 03:47:30;;;;;;;2.03;1.38;;;23.30;42.00;;;;;;5071909;28;20055;-38
2021/03/20 03:49:59;;;;;;;1.80;1.30;;;23.30;42.00;;;;;;5071794;28;20045;-38
2021/03/20 03:52:26;;;;;;;3.15;1.67;;;23.30;42.60;;;;;;5071509;28;20048;-39
2021/03/20 03:54:53;;;;;;;1.75;1.30;;;23.30;42.00;;;;;;5072002;28;20040;-38
2021/03/20 03:57:20;;;;;;;1.80;1.30;;;23.30;42.00;;;;;;5071405;28;20044;-37
2021/03/20 03:59:58;;;;;;;1.50;1.35;;;23.30;42.00;;;;;;5071564;28;20055;-38
2021/03/20 04:02:46;;;;;;;1.83;1.40;;;23.30;42.00;;;;;;5071267;28;20052;-38
2021/03/20 04:05:32;;;;;;;2.42;1.50;;;23.30;42.60;;;;;;5071888;28;20105;-38
2021/03/20 04:08:28;;;;;;;1.95;1.65;;;23.30;42.00;;;;;;5071356;28;20045;-38
2021/03/20 04:11:01;;;;;;;2.00;1.33;;;23.30;42.00;;;;;;5054508;28;20558;-38
2021/03/20 04:13:39;;;;;;;1.52;1.33;;;23.30;42.00;;;;;;5073665;28;20497;-38
2021/03/20 04:16:18;;;;;;;2.03;1.42;;;23.30;42.00;;;;;;5071182;28;20048;-38
2021/03/20 04:19:05;;;;;;;1.70;1.25;;;23.30;42.00;;;;;;5071043;28;20045;-39
2021/03/20 04:21:44;;;;;;;1.85;1.23;;;23.30;42.00;;;;;;5071567;28;20048;-38
2021/03/20 04:24:36;;;;;;;1.65;1.25;;;23.30;42.00;;;;;;5072123;28;20056;-38
2021/03/20 04:27:11;;;;;;;1.73;1.42;;;23.20;42.50;;;;;;5070507;28;20056;-38
2021/03/20 04:29:41;;;;;;;1.75;1.50;;;23.20;41.90;;;;;;5071592;28;20044;-38
2021/03/20 04:32:36;;;;;;;2.03;1.20;;;23.20;41.90;;;;;;5070257;28;20411;-38
2021/03/20 04:35:14;;;;;;;1.33;1.23;;;23.20;42.00;;;;;;5072460;28;20476;-38
2021/03/20 04:37:46;;;;;;;1.73;1.30;;;23.30;42.00;;;;;;5070893;28;20067;-38
2021/03/20 04:40:39;;;;;;;1.67;1.05;;;23.20;42.00;;;;;;5071127;28;20121;-38
2021/03/20 04:43:07;;;;;;;1.98;1.40;;;23.30;42.00;;;;;;5068679;28;20059;-38
2021/03/20 04:45:39;;;;;;;2.08;1.35;;;23.20;41.90;;;;;;5070919;28;20052;-38
2021/03/20 04:48:17;;;;;;;1.88;1.35;;;23.30;42.00;;;;;;5070302;28;20106;-37
2021/03/20 04:50:47;;;;;;;2.42;1.13;;;23.20;41.90;;;;;;5070227;28;20412;-37
2021/03/20 04:53:16;;;;;;;1.83;1.35;;;23.20;41.90;;;;;;5070658;28;20037;-37
2021/03/20 04:55:43;;;;;;;1.48;1.38;;;23.30;42.00;;;;;;5072608;28;20102;-37
2021/03/20 04:58:29;;;;;;;1.83;1.40;;;23.20;41.90;;;;;;5070561;28;20385;-37
2021/03/20 05:01:01;;;;;;;1.92;1.40;;;23.20;41.90;;;;;;5071123;28;20048;-37
2021/03/20 05:03:54;;;;;;;1.50;1.10;;;23.20;41.90;;;;;;5071016;28;20041;-38
2021/03/20 05:06:25;;;;;;;1.52;1.17;;;23.20;41.90;;;;;;5072162;28;20562;-37
2021/03/20 05:09:05;;;;;;;1.48;1.10;;;23.20;41.90;;;;;;5069844;28;20041;-37
2021/03/20 05:11:35;;;;;;;1.70;1.27;;;23.20;42.00;;;;;;5070781;28;20044;-37
2021/03/20 05:14:07;;;;;;;1.30;1.20;;;23.20;42.00;;;;;;5073822;28;20055;-37
2021/03/20 05:16:51;;;;;;;1.83;1.20;;;23.20;42.00;;;;;;5072380;28;20052;-38
2021/03/20 05:19:19;;;;;;;1.85;1.27;;;23.20;41.90;;;;;;5074966;28;20388;-37
2021/03/20 05:21:54;;;;;;;1.50;1.40;;;23.20;41.90;;;;;;5074774;28;20087;-37
2021/03/20 05:24:28;;;;;;;1.17;1.08;;;23.20;41.90;;;;;;5073436;28;20049;-37
2021/03/20 05:26:57;;;;;;;1.63;1.15;;;23.20;41.90;;;;;;5074674;28;20109;-37
2021/03/20 05:29:25;;;;;;;1.58;1.45;;;23.20;41.90;;;;;;5074707;28;20405;-38
2021/03/20 05:31:53;;;;;;;1.48;1.33;;;23.20;41.90;;;;;;5073607;28;20122;-38
2021/03/20 05:34:29;;;;;;;1.90;1.23;;;23.20;41.90;;;;;;5074019;28;20048;-38
2021/03/20 05:36:56;;;;;;;2.05;1.30;;;23.20;41.90;;;;;;5074053;28;20041;-37
2021/03/20 05:39:23;;;;;;;1.75;1.30;;;23.20;41.90;;;;;;5074233;28;20132;-37
2021/03/20 05:42:08;;;;;;;1.65;1.27;;;23.20;41.90;;;;;;5074572;28;20048;-37
2021/03/20 05:45:13;;;;;;;1.35;1.08;;;23.20;41.90;;;;;;5074261;28;20052;-38
2021/03/20 05:47:39;;;;;;;;;;;23.20;41.90;;;;;;5074491;28;20117;-38
2021/03/20 05:50:28;;;;;;;1.42;0.98;;;23.20;41.90;;;;;;5073055;28;20389;-38
2021/03/20 05:53:13;;;;;;;1.42;1.20;;;23.20;41.90;;;;;;5074393;28;20044;-38
2021/03/20 05:55:53;;;;;;;2.83;1.38;;;23.20;41.90;;;;;;5074564;28;20055;-38
2021/03/20 05:58:44;;;;;;;1.55;1.13;;;23.20;41.90;;;;;;5073163;28;20074;-37
2021/03/20 06:01:23;;;;;;;1.13;0.98;;;23.20;41.90;;;;;;5074480;28;20056;-38
2021/03/20 06:04:05;;;;;;;1.65;1.08;;;23.20;41.90;;;;;;5073006;28;20443;-37
2021/03/20 06:06:41;;;;;;;2.55;1.40;;;23.20;41.90;;;;;;5074413;28;20048;-37
2021/03/20 06:09:18;;;;;;;1.40;1.20;;;23.20;41.80;;;;;;5073192;28;20055;-38
2021/03/20 06:12:00;;;;;;;1.45;1.25;;;23.20;41.90;;;;;;5075036;28;20044;-38
2021/03/20 06:14:29;;;;;;;1.95;1.33;;;23.20;41.80;;;;;;5073735;28;20049;-38
2021/03/20 06:17:11;;;;;;;1.40;1.10;;;23.20;41.80;;;;;;5073665;28;20040;-38
2021/03/20 06:20:04;;;;;;;1.40;1.13;;;23.20;41.80;;;;;;5073574;28;20090;-38
2021/03/20 06:22:55;;;;;;;1.70;1.20;;;23.20;41.80;;;;;;5073678;28;20053;-38
2021/03/20 06:25:57;;;;;;;1.30;1.20;;;23.20;41.80;;;;;;5074050;28;20049;-38
2021/03/20 06:28:56;;;;;;;1.60;1.27;;;23.20;41.80;;;;;;5073767;28;20058;-38
2021/03/20 06:31:23;;;;;;;1.67;1.30;;;23.20;41.80;;;;;;5050631;28;20048;-37
2021/03/20 06:33:59;;;;;;;1.33;1.00;;;23.20;41.80;;;;;;5073507;28;20059;-38
2021/03/20 06:36:33;;;;;;;1.20;1.05;;;23.20;41.80;;;;;;5071650;28;20047;-38
2021/03/20 06:39:33;;;;;;;1.35;1.20;;;23.20;41.80;;;;;;5072702;28;20420;-38
2021/03/20 06:42:11;;;;;;;1.75;1.20;;;23.20;41.80;;;;;;5072398;28;20056;-38
2021/03/20 06:44:47;;;;;;;1.58;1.10;;;23.20;41.80;;;;;;5073226;28;20048;-38
2021/03/20 06:47:21;;;;;;;1.17;1.00;;;23.20;41.80;;;;;;5072536;28;20048;-38
2021/03/20 06:50:13;;;;;;;1.45;0.93;;;23.20;41.80;;;;;;5071218;28;20064;-38
2021/03/20 06:52:40;;;;;;;1.52;1.10;;;23.20;41.80;;;;;;5073173;28;20047;-38
2021/03/20 06:55:55;;;;;;;1.52;1.15;;;23.20;41.80;;;;;;5051450;28;20541;-38
2021/03/20 06:58:32;;;;;;;1.67;1.25;;;23.20;41.70;;;;;;4995704;28;20045;-38
2021/03/20 07:01:25;;;;;;;2.25;1.23;;;23.30;41.80;;;;;;5012396;28;20085;-38
2021/03/20 07:04:37;;;;;;;1.17;1.00;;;23.30;42.00;;;;;;4995318;28;20564;-37
2021/03/20 07:07:18;;;;;;;1.60;1.10;;;23.30;41.80;;;;;;4988748;28;20405;-38
2021/03/20 07:09:49;;;;;;;1.17;1.05;;;23.20;41.70;;;;;;5009516;28;20054;-38
2021/03/20 07:12:20;;;;;;;1.58;1.10;;;23.30;41.80;;;;;;5012133;28;20041;-38
2021/03/20 07:14:55;;;;;;;1.30;1.10;;;23.30;41.80;;;;;;5009510;28;20513;-38
2021/03/20 07:17:25;;;;;;;1.35;1.00;;;23.30;41.70;;;;;;4996202;28;20045;-38
2021/03/20 07:19:56;;;;;;;1.77;1.20;;;23.30;41.70;;;;;;5010743;28;20493;-38
2021/03/20 07:22:36;;;;;;;1.20;1.00;;;23.30;41.70;;;;;;5011505;28;20050;-38
2021/03/20 07:25:53;;;;;;;1.67;1.20;;;23.30;41.70;;;;;;4994999;28;20050;-38
2021/03/20 07:28:29;;;;;;;1.33;1.00;;;23.30;41.70;;;;;;4937069;28;20050;-38
2021/03/20 07:30:58;;;;;;;0.93;0.77;;;23.30;41.70;;;;;;4936699;28;20051;-38
2021/03/20 07:33:34;;;;;;;1.67;1.13;;;23.30;41.60;;;;;;4970642;28;20096;-37
2021/03/20 07:36:33;;;;;;;1.42;1.20;;;23.30;41.60;;;;;;5012310;28;20085;-38
2021/03/20 07:39:23;;;;;;;1.48;1.20;;;23.30;41.60;;;;;;5030704;28;20041;-37
2021/03/20 07:42:00;;;;;;;1.10;1.00;;;23.30;41.60;;;;;;5029050;28;20985;-38
2021/03/20 07:45:02;;;;;;;1.15;1.02;;;23.40;41.70;;;;;;5014622;28;20073;-38
2021/03/20 07:47:37;;;;;;;2.08;1.20;;;23.40;41.70;;;;;;5014749;28;20041;-38
2021/03/20 07:50:24;;;;;;;1.60;1.10;;;23.30;41.60;;;;;;5016276;28;20049;-37
2021/03/20 07:53:08;;;;;;;1.25;1.00;;;23.30;41.50;;;;;;5027494;28;20050;-38
2021/03/20 07:56:11;;;;;;;1.77;1.10;;;23.30;41.50;;;;;;5017023;28;20045;-38
2021/03/20 07:58:42;;;;;;;1.20;0.90;;;23.40;41.60;;;;;;5025491;28;20442;-38
2021/03/20 08:01:19;;;;;;;1.30;1.20;;;23.30;41.50;;;;;;5018400;28;20041;-38
2021/03/20 08:04:01;;;;;;;1.30;1.00;;;23.30;41.50;;;;;;5028407;28;20077;-38
2021/03/20 08:06:32;;;;;;;1.27;1.05;;;23.40;41.60;;;;;;5070536;28;20067;-38
2021/03/20 08:09:20;;;;;;;1.30;1.13;;;23.30;41.50;;;;;;5071103;28;20100;-38
2021/03/20 08:12:00;;;;;;;1.23;0.95;;;23.30;41.50;;;;;;5071709;28;20059;-38
2021/03/20 08:14:47;;;;;;;1.17;1.00;;;23.40;41.60;;;;;;5072716;28;20041;-38
2021/03/20 08:17:18;;;;;;;1.10;1.00;;;23.30;41.50;;;;;;5071700;28;20037;-38
2021/03/20 08:19:46;;;;;;;1.45;1.10;;;23.40;41.60;;;;;;5071181;28;20514;-38
2021/03/20 08:22:43;;;;;;;1.77;1.30;;;23.30;42.10;;;;;;5071820;28;20075;-38
2021/03/20 08:25:25;;;;;;;1.30;0.95;;;23.30;41.50;;;;;;5058061;28;20045;-38
2021/03/20 08:28:10;;;;;;;2.17;1.27;;;23.40;41.50;;;;;;5070900;28;20048;-38
2021/03/20 08:30:54;;;;;;;1.27;0.95;;;23.30;41.50;;;;;;5070135;28;20045;-38
2021/03/20 08:33:36;;;;;;;1.33;0.90;;;23.40;41.60;;;;;;5070269;28;20048;-37
2021/03/20 08:36:34;;;;;;;1.35;1.00;;;23.40;41.60;;;;;;5070237;28;20123;-38
2021/03/20 08:39:37;;;;;;;1.23;1.10;;;23.30;41.50;;;;;;5070683;28;20071;-38
2021/03/20 08:42:04;;;;;;;0.90;0.80;;;23.40;41.50;;;;;;5071545;28;20048;-38
2021/03/20 08:44:45;;;;;;;1.52;1.02;;;23.40;41.50;;;;;;5071124;28;20045;-38
2021/03/20 08:47:24;;;;;;;1.60;1.00;;;23.40;41.50;;;;;;5071386;28;20048;-38
2021/03/20 08:50:16;;;;;;;1.58;1.25;;;23.40;41.50;;;;;;5074973;28;20047;-38
2021/03/20 08:52:51;;;;;;;2.88;1.02;;;23.40;41.50;;;;;;5074079;28;20048;-38
2021/03/20 08:55:45;;;;;;;1.17;0.95;;;23.40;41.50;;;;;;5076625;28;20131;-39
2021/03/20 08:58:44;;;;;;;1.23;1.00;;;23.40;41.50;;;;;;5074152;28;20059;-39
2021/03/20 09:01:46;;;;;;;1.50;1.20;;;23.40;41.50;;;;;;5074013;28;20526;-42
2021/03/20 09:04:33;;;;;;;1.60;1.10;;;23.40;41.50;;;;;;5071981;28;20048;-37
2021/03/20 09:07:19;;;;;;;1.40;0.90;;;23.40;41.50;;;;;;5072941;28;20100;-38
2021/03/20 09:09:53;;;;;;;1.10;0.90;;;23.40;41.50;;;;;;5074540;28;20494;-37
2021/03/20 09:12:28;;;;;;;1.30;1.02;;;23.40;41.50;;;;;;5076409;28;20046;-37
2021/03/20 09:14:55;;;;;;;1.00;0.90;;;23.40;41.50;;;;;;5075415;28;20059;-37
2021/03/20 09:17:38;;;;;;;1.73;1.08;;;23.40;41.50;;;;;;5075814;28;20040;-37
2021/03/20 09:20:12;;;;;;;1.30;0.93;;;23.40;41.50;;;;;;5073601;28;20131;-37
2021/03/20 09:22:44;;;;;;;1.45;1.08;;;23.40;41.50;;;;;;5074887;28;20079;-38
2021/03/20 09:25:19;;;;;;;1.20;1.00;;;23.40;41.50;;;;;;5074842;28;20080;-37
2021/03/20 09:28:11;;;;;;;1.20;1.10;;;23.40;41.40;;;;;;5074351;28;20048;-37
2021/03/20 09:30:45;;;;;;;1.52;1.00;;;23.40;41.40;;;;;;5072896;28;20048;-37
2021/03/20 09:33:39;;;;;;;1.42;1.20;;;23.40;41.40;;;;;;5073053;28;20048;-37
2021/03/20 09:36:20;;;;;;;;;;;23.40;41.40;;;;;;5070940;28;20059;-37
2021/03/20 09:38:53;;;;;;;1.23;0.85;;;23.40;41.40;;;;;;5073147;28;19976;-37
2021/03/20 09:41:21;;;;;;;1.30;0.98;;;23.40;41.40;;;;;;5074470;28;20049;-38
2021/03/20 09:43:53;;;;;;;1.88;1.17;;;23.40;41.40;;;;;;5073420;28;20055;-37
2021/03/20 09:46:38;;;;;;;1.30;0.90;;;23.40;41.40;;;;;;5074796;28;20041;-37
2021/03/20 09:49:08;;;;;;;1.77;1.10;;;23.40;41.40;;;;;;5074195;28;20399;-37
2021/03/20 09:51:50;;;;;;;1.55;1.05;;;23.40;41.50;;;;;;5073947;28;20080;-37
2021/03/20 09:54:33;;;;;;;1.42;1.00;;;23.40;41.40;;;;;;5073275;28;20060;-37
2021/03/20 09:57:22;;;;;;;2.42;1.17;;;23.40;41.40;;;;;;5073160;28;20040;-41
2021/03/20 09:59:50;;;;;;;1.42;1.02;;;23.40;41.40;;;;;;5072674;28;20087;-37
2021/03/20 10:02:19;;;;;;;1.40;0.98;;;23.40;41.40;;;;;;5072626;28;20056;-37
2021/03/20 10:04:59;;;;;;;1.35;0.93;;;23.40;41.40;;;;;;5074469;28;20048;-38
2021/03/20 10:07:26;;;;;;;1.05;0.90;;;23.40;41.40;;;;;;5056617;28;20131;-38
2021/03/20 10:09:59;;;;;;;1.10;0.98;;;23.40;41.40;;;;;;5074005;28;20051;-38
2021/03/20 10:12:45;;;;;;;1.30;0.80;;;23.40;41.40;;;;;;5073534;28;20048;-38
2021/03/20 10:15:15;;;;;;;;;;;23.40;41.40;;;;;;5074819;28;20170;-38
2021/03/20 10:18:01;;;;;;;1.10;0.90;;;23.40;41.40;;;;;;5071429;28;19920;-38
2021/03/20 10:20:52;;;;;;;1.00;0.82;;;23.40;41.40;;;;;;5073461;28;20079;-38
2021/03/20 10:23:46;;;;;;;1.52;1.02;;;23.40;41.40;;;;;;5073846;28;20102;-38
2021/03/20 10:26:30;;;;;;;0.95;0.85;;;23.40;41.40;;;;;;5057429;28;20049;-37
2021/03/20 10:29:03;;;;;;;1.48;1.02;;;23.40;41.40;;;;;;5056171;28;20079;-37
2021/03/20 10:31:42;;;;;;;1.17;0.85;;;23.50;41.90;;;;;;5071689;28;20041;-37
2021/03/20 10:34:14;;;;;;;1.13;0.93;;;23.40;41.40;;;;;;5073921;28;20079;-37
2021/03/20 10:36:43;;;;;;;1.80;0.95;;;23.40;41.30;;;;;;5072561;28;20378;-37
2021/03/20 10:39:22;;;;;;;1.48;0.98;;;23.50;41.40;;;;;;5072495;28;20101;-37
2021/03/20 10:41:51;;;;;;;1.08;0.90;;;23.50;41.40;;;;;;5072169;28;20044;-38
2021/03/20 10:44:27;;;;;;;1.30;1.00;;;23.50;41.40;;;;;;5072223;28;20049;-38
2021/03/20 10:47:06;;;;;;;1.25;0.93;;;23.50;41.30;;;;;;5074417;28;20044;-38
2021/03/20 10:49:44;;;;;;;1.17;0.98;;;23.50;41.30;;;;;;5072528;28;20041;-37
2021/03/20 10:52:19;;;;;;;1.33;0.82;;;23.50;41.40;;;;;;5072888;28;20113;-39
2021/03/20 10:54:51;;;;;;;1.35;1.00;;;23.50;41.30;;;;;;5071841;28;20049;-38
2021/03/20 10:57:23;;;;;;;1.55;1.00;;;23.50;41.30;;;;;;5072273;28;20055;-49
2021/03/20 10:59:51;;;;;;;3.25;1.15;;;23.50;41.30;;;;;;5081310;28;20508;-38
2021/03/20 11:02:30;;;;;;;4.72;1.25;;;23.50;41.80;;;;;;5082670;28;20055;-37
2021/03/20 11:05:20;;;;;;;1.52;1.10;;;23.50;41.60;;;;;;5071579;28;20048;-38
2021/03/20 11:07:56;;;;;;;2.97;0.90;;;23.50;41.50;;;;;;5065016;28;20052;-37
2021/03/20 11:10:37;;;;;;;2.30;1.10;;;23.50;41.40;;;;;;5071655;28;20045;-38
2021/03/20 11:13:17;;;;;;;1.17;1.08;;;23.50;41.40;;;;;;5072935;28;20060;-39
2021/03/20 11:15:47;;;;;;;1.42;1.02;;;23.50;41.40;;;;;;5076452;28;20040;-39
2021/03/20 11:18:29;;;;;;;3.15;1.10;;;23.50;41.40;;;;;;5073003;28;20384;-37
2021/03/20 11:20:56;;;;;;;3.72;1.10;;;23.50;41.40;;;;;;5072544;28;20101;-38
2021/03/20 11:23:29;;;;;;;1.25;1.00;;;23.50;41.30;;;;;;5071062;28;20075;-37
2021/03/20 11:26:08;;;;;;;1.35;1.20;;;23.50;41.30;;;;;;5070842;28;20496;-38
2021/03/20 11:28:35;;;;;;;2.75;1.00;;;23.50;41.30;;;;;;5070846;28;20412;-39
2021/03/20 11:31:04;;;;;;;1.25;1.08;;;23.50;41.40;;;;;;5069416;28;20055;-37
2021/03/20 11:33:35;;;;;;;5.00;1.30;;;23.50;41.30;;;;;;5073723;28;20049;-37
2021/03/20 11:36:06;;;;;;;2.65;0.90;;;23.50;41.30;;;;;;5071875;28;20040;-38
2021/03/20 11:38:35;;;;;;;1.30;1.00;;;23.50;41.40;;;;;;5070088;28;20048;-38
2021/03/20 11:41:02;;;;;;;1.20;0.80;;;23.50;41.50;;;;;;5068081;28;20052;-38
2021/03/20 11:43:38;;;;;;;3.08;1.13;;;23.50;41.50;;;;;;5068737;28;20053;-38
2021/03/20 11:46:24;;;;;;;2.40;1.00;;;23.50;41.50;;;;;;5069671;28;20045;-38
2021/03/20 11:49:01;;;;;;;2.92;0.98;;;23.50;41.50;;;;;;5069331;28;20048;-37
2021/03/20 11:51:36;;;;;;;2.30;1.17;;;23.50;41.50;;;;;;5069475;28;20537;-37
2021/03/20 11:54:17;;;;;;;1.70;1.00;;;23.50;41.50;;;;;;5069688;28;20052;-38
2021/03/20 11:56:52;;;;;;;4.07;1.17;;;23.50;41.50;;;;;;5069724;28;20444;-38
2021/03/20 11:59:37;;;;;;;6.15;1.00;;;23.50;42.10;;;;;;5069052;28;20048;-38
2021/03/20 12:02:07;;;;;;;6.57;0.98;;;23.50;41.50;;;;;;5069278;28;20135;-38
2021/03/20 12:04:34;;;;;;;5.07;0.95;;;23.60;41.70;;;;;;5070871;28;20059;-38
2021/03/20 12:07:26;;;;;;;8.18;1.17;;;23.50;41.70;;;;;;5073698;28;20048;-38
2021/03/20 12:09:54;;;;;;;5.90;1.27;;;23.60;41.90;;;;;;5060770;28;20044;-38
2021/03/20 12:12:47;;;;;;;3.10;1.00;;;23.50;42.00;;;;;;5068978;28;20041;-38
2021/03/20 12:15:34;;;;;;;4.45;1.00;;;23.60;42.10;;;;;;5070497;28;20048;-37
2021/03/20 12:18:12;;;;;;;2.72;1.23;;;23.60;42.20;;;;;;5069147;28;20083;-37
2021/03/20 12:20:43;;;;;;;6.55;1.25;;;23.50;42.80;;;;;;5068921;28;20132;-37
2021/03/20 12:23:17;;;;;;;7.03;1.25;;;23.50;42.30;;;;;;5068709;28;20048;-38
2021/03/20 12:25:57;;;;;;;11.15;1.40;;;23.50;42.50;;;;;;5068877;28;20052;-37
2021/03/20 12:28:37;;;;;;;7.72;1.58;;;23.50;42.60;;;;;;5070585;28;20052;-38
2021/03/20 12:31:12;;;;;;;;;;;23.60;42.80;;;;;;5067596;28;20068;-42
2021/03/20 12:33:56;;;;;;;8.32;1.40;;;23.60;42.80;;;;;;5069876;28;19924;-37
2021/03/20 12:36:33;;;;;;;5.85;1.50;;;23.60;42.90;;;;;;5069249;28;20041;-38
2021/03/20 12:39:03;;;;;;;16.80;1.67;;;23.60;42.80;;;;;;5069422;28;20078;-38
2021/03/20 12:41:33;;;;;;;8.23;1.63;;;23.50;39.80;;;;;;5068510;28;20045;-37
2021/03/20 12:44:13;;;;;;;12.30;1.58;;;23.50;37.90;;;;;;5069696;28;20044;-37
2021/03/20 12:46:55;;;;;;;15.15;1.80;;;23.50;36.50;;;;;;5054746;28;20048;-37
2021/03/20 12:49:31;;;;;;;12.70;2.30;;;23.40;35.10;;;;;;5052446;28;20463;-37
2021/03/20 12:52:16;;;;;;;10.00;1.88;;;23.40;33.80;;;;;;5069676;28;20047;-38
2021/03/20 12:54:46;;;;;;;11.57;1.92;;;23.40;32.70;;;;;;5052475;28;20533;-39
2021/03/20 12:57:35;;;;;;;6.53;1.85;;;23.30;32.40;;;;;;5070663;28;20048;-38
2021/03/20 13:00:17;;;;;;;9.82;2.20;;;23.20;31.90;;;;;;5069558;28;20131;-38
2021/03/20 13:02:44;;;;;;;5.32;1.58;;;23.20;31.60;;;;;;5068885;28;20087;-38
2021/03/20 13:05:33;;;;;;;8.88;1.65;;;23.10;31.40;;;;;;5070252;28;20053;-38
2021/03/20 13:08:00;;;;;;;5.82;1.60;;;23.10;31.40;;;;;;5070587;28;20102;-39
2021/03/20 13:10:27;;;;;;;5.07;1.40;;;23.00;31.80;;;;;;5069339;28;20055;-38
2021/03/20 13:12:54;;;;;;;4.95;1.77;;;23.00;32.00;;;;;;5068450;28;20536;-38
2021/03/20 13:15:23;;;;;;;4.55;1.65;;;23.00;32.40;;;;;;5069871;28;20048;-38
2021/03/20 13:17:50;;;;;;;3.20;1.50;;;23.00;33.20;;;;;;5068386;28;20040;-38
2021/03/20 13:20:36;;;;;;;7.85;1.42;;;23.00;33.50;;;;;;5068652;28;20079;-39
2021/03/20 13:23:06;;;;;;;6.50;1.52;;;23.00;33.80;;;;;;5069612;28;20131;-39
2021/03/20 13:25:36;;;;;;;3.10;1.63;;;23.00;33.80;;;;;;5068665;28;20070;-38
2021/03/20 13:28:05;;;;;;;7.28;1.40;;;23.10;34.00;;;;;;5068207;28;20135;-38
2021/03/20 13:30:36;;;;;;;6.18;1.85;;;23.10;34.10;;;;;;5066760;28;20382;-38
2021/03/20 13:33:03;;;;;;;7.75;1.40;;;23.10;34.20;;;;;;5068598;28;20040;-38
2021/03/20 13:35:34;;;;;;;4.13;1.50;;;23.10;34.30;;;;;;5072072;28;20049;-39
2021/03/20 13:38:02;;;;;;;6.63;1.50;;;23.10;34.50;;;;;;5074714;28;20066;-38